createdAt,value
2022-11-29T00:01:09.950Z,26.53
2022-11-29T00:03:37.484Z,23.50
2022-11-29T00:06:06.249Z,23.00
2022-11-29T00:08:32.868Z,22.47
2022-11-29T00:11:07.853Z,25.13
2022-11-29T00:13:34.937Z,23.50
2022-11-29T00:16:06.349Z,25.40
2022-11-29T00:18:33.272Z,29.60
2022-11-29T00:21:00.747Z,31.00
2022-11-29T00:23:27.524Z,27.17
2022-11-29T00:25:54.226Z,30.20
2022-11-29T00:28:20.886Z,23.40
2022-11-29T00:30:47.565Z,27.40
2022-11-29T00:33:14.300Z,28.33
2022-11-29T00:35:40.902Z,26.83
2022-11-29T00:38:07.696Z,28.30
2022-11-29T00:40:34.337Z,26.33
2022-11-29T00:43:00.992Z,26.33
2022-11-29T00:45:27.623Z,25.13
2022-11-29T00:47:54.326Z,24.43
2022-11-29T00:50:22.077Z,23.90
2022-11-29T00:52:48.801Z,26.27
2022-11-29T00:55:15.504Z,26.17
2022-11-29T00:57:42.212Z,27.93
2022-11-29T01:00:09.481Z,25.40
2022-11-29T01:02:36.203Z,22.97
2022-11-29T01:05:03.017Z,26.63
2022-11-29T01:07:29.646Z,27.17
2022-11-29T01:09:56.344Z,28.47
2022-11-29T01:12:22.964Z,21.07
2022-11-29T01:14:49.564Z,26.40
2022-11-29T01:17:16.216Z,23.63
2022-11-29T01:19:47.839Z,25.10
2022-11-29T01:22:17.238Z,28.00
2022-11-29T01:24:44.198Z,22.07
2022-11-29T01:27:11.154Z,23.27
2022-11-29T01:29:38.534Z,24.97
2022-11-29T01:32:05.214Z,26.57
2022-11-29T01:34:31.819Z,21.40
2022-11-29T01:36:58.441Z,26.13
2022-11-29T01:39:25.102Z,25.87
2022-11-29T01:41:51.781Z,30.27
2022-11-29T01:44:18.356Z,24.17
2022-11-29T01:46:47.209Z,23.37
2022-11-29T01:49:38.892Z,24.83
2022-11-29T01:52:17.910Z,23.87
2022-11-29T01:54:49.429Z,24.30
2022-11-29T01:57:16.740Z,24.50
2022-11-29T01:59:48.256Z,25.17
2022-11-29T02:02:27.358Z,34.00
2022-11-29T02:04:54.190Z,32.60
2022-11-29T02:07:20.879Z,22.80
2022-11-29T02:09:47.611Z,27.20
2022-11-29T02:12:35.138Z,27.23
2022-11-29T02:15:18.617Z,25.47
2022-11-29T02:18:12.388Z,20.47
2022-11-29T02:21:11.124Z,25.53
2022-11-29T02:23:58.689Z,22.70
2022-11-29T02:26:28.062Z,20.50
2022-11-29T02:29:13.171Z,21.30
2022-11-29T02:32:17.182Z,23.37
2022-11-29T02:35:08.628Z,20.30
2022-11-29T02:37:44.152Z,28.20
2022-11-29T02:40:24.268Z,26.93
2022-11-29T02:42:56.249Z,25.50
2022-11-29T02:45:32.298Z,26.43
2022-11-29T02:48:07.815Z,25.27
2022-11-29T02:51:12.109Z,21.87
2022-11-29T02:53:47.693Z,23.47
2022-11-29T02:56:34.719Z,19.63
2022-11-29T02:59:22.760Z,18.73
2022-11-29T03:02:04.521Z,23.13
2022-11-29T03:04:39.322Z,16.40
2022-11-29T03:07:55.843Z,27.37
2022-11-29T03:10:55.604Z,25.77
2022-11-29T03:13:49.855Z,27.00
2022-11-29T03:16:42.558Z,42.30
2022-11-29T03:20:07.352Z,22.87
2022-11-29T03:22:43.406Z,32.00
2022-11-29T03:25:19.046Z,20.03
2022-11-29T03:28:02.718Z,24.93
2022-11-29T03:30:32.569Z,17.87
2022-11-29T03:33:22.943Z,18.50
2022-11-29T03:36:14.112Z,18.63
2022-11-29T03:38:43.664Z,18.40
2022-11-29T03:41:10.311Z,15.30
2022-11-29T03:43:51.704Z,17.37
2022-11-29T03:46:25.542Z,16.97
2022-11-29T03:49:03.435Z,18.30
2022-11-29T03:51:58.704Z,15.73
2022-11-29T03:54:53.030Z,15.50
2022-11-29T03:57:37.199Z,15.80
2022-11-29T04:00:06.818Z,13.97
2022-11-29T04:02:48.639Z,12.87
2022-11-29T04:05:29.339Z,13.23
2022-11-29T04:08:14.185Z,11.30
2022-11-29T04:11:08.556Z,13.03
2022-11-29T04:13:54.014Z,11.70
2022-11-29T04:16:47.863Z,10.20
2022-11-29T04:19:52.092Z,11.70
2022-11-29T04:22:35.739Z,12.73
2022-11-29T04:25:41.726Z,11.03
2022-11-29T04:28:23.204Z,10.83
2022-11-29T04:31:15.472Z,9.93
2022-11-29T04:33:42.126Z,9.90
2022-11-29T04:36:14.562Z,14.73
2022-11-29T04:38:53.080Z,13.83
2022-11-29T04:42:02.909Z,10.87
2022-11-29T04:44:29.446Z,12.40
2022-11-29T04:46:56.102Z,12.43
2022-11-29T04:49:56.593Z,13.53
2022-11-29T04:52:44.452Z,13.00
2022-11-29T04:55:27.794Z,12.93
2022-11-29T04:58:08.605Z,11.17
2022-11-29T05:00:47.950Z,12.33
2022-11-29T05:03:26.262Z,12.77
2022-11-29T05:06:10.064Z,12.83
2022-11-29T05:08:53.166Z,11.70
2022-11-29T05:11:30.326Z,11.87
2022-11-29T05:14:37.445Z,10.83
2022-11-29T05:17:06.774Z,13.20
2022-11-29T05:19:52.099Z,11.87
2022-11-29T05:22:34.900Z,13.57
2022-11-29T05:25:23.951Z,13.47
2022-11-29T05:28:05.699Z,15.93
2022-11-29T05:31:15.040Z,17.50
2022-11-29T05:34:04.307Z,13.03
2022-11-29T05:36:38.161Z,14.73
2022-11-29T05:39:30.199Z,11.57
2022-11-29T05:42:23.841Z,12.77
2022-11-29T05:45:18.019Z,13.67
2022-11-29T05:48:00.141Z,11.17
2022-11-29T05:50:41.944Z,15.67
2022-11-29T05:53:32.351Z,17.27
2022-11-29T05:56:13.897Z,12.27
2022-11-29T05:59:08.278Z,12.40
2022-11-29T06:01:47.413Z,11.13
2022-11-29T06:04:21.613Z,11.77
2022-11-29T06:07:01.034Z,9.90
2022-11-29T06:09:44.222Z,9.90
2022-11-29T06:12:21.281Z,9.60
2022-11-29T06:15:13.651Z,8.67
2022-11-29T06:17:50.113Z,9.40
2022-11-29T06:20:27.810Z,8.40
2022-11-29T06:23:06.368Z,6.97
2022-11-29T06:26:02.341Z,9.80
2022-11-29T06:28:42.784Z,11.90
2022-11-29T06:31:16.448Z,15.43
2022-11-29T06:33:57.822Z,11.83
2022-11-29T06:36:46.985Z,9.77
2022-11-29T06:39:14.389Z,10.63
2022-11-29T06:41:41.025Z,11.63
2022-11-29T06:44:08.437Z,12.73
2022-11-29T06:46:47.479Z,12.07
2022-11-29T06:49:30.938Z,11.73
2022-11-29T06:52:08.794Z,17.50
2022-11-29T06:54:59.450Z,20.80
2022-11-29T06:57:44.176Z,21.93
2022-11-29T07:00:17.171Z,15.90
2022-11-29T07:03:06.415Z,21.47
2022-11-29T07:05:35.014Z,16.53
2022-11-29T07:08:10.484Z,16.87
2022-11-29T07:10:39.581Z,11.70
2022-11-29T07:13:06.555Z,11.67
2022-11-29T07:15:33.696Z,10.20
2022-11-29T07:18:00.339Z,8.53
2022-11-29T07:20:41.066Z,14.63
2022-11-29T07:23:26.044Z,7.90
2022-11-29T07:26:11.588Z,9.50
2022-11-29T07:28:46.438Z,11.43
2022-11-29T07:31:37.592Z,11.37
2022-11-29T07:34:28.862Z,14.00
2022-11-29T07:37:14.895Z,11.77
2022-11-29T07:40:04.100Z,8.47
2022-11-29T07:42:51.957Z,10.40
2022-11-29T07:45:33.393Z,6.93
2022-11-29T07:48:00.106Z,7.20
2022-11-29T07:50:27.917Z,7.53
2022-11-29T07:52:55.905Z,9.43
2022-11-29T07:55:25.412Z,10.47
2022-11-29T07:57:52.669Z,7.10
2022-11-29T08:00:20.417Z,10.37
2022-11-29T08:02:48.344Z,11.03
2022-11-29T08:05:15.363Z,10.60
2022-11-29T08:07:42.362Z,15.17
2022-11-29T08:10:18.042Z,9.87
2022-11-29T08:12:47.373Z,10.07
2022-11-29T08:15:14.558Z,11.47
2022-11-29T08:17:41.336Z,8.30
2022-11-29T08:20:08.959Z,10.63
2022-11-29T08:22:36.101Z,13.97
2022-11-29T08:25:03.553Z,10.50
2022-11-29T08:27:30.283Z,14.37
2022-11-29T08:29:56.985Z,16.63
2022-11-29T08:32:23.743Z,26.37
2022-11-29T08:34:50.396Z,18.00
2022-11-29T08:37:17.034Z,16.53
2022-11-29T08:39:43.852Z,16.73
2022-11-29T08:42:10.912Z,24.00
2022-11-29T08:44:37.581Z,22.53
2022-11-29T08:47:22.901Z,22.73
2022-11-29T08:50:01.891Z,22.10
2022-11-29T08:52:53.042Z,25.13
2022-11-29T08:55:21.903Z,20.07
2022-11-29T08:57:49.917Z,23.60
2022-11-29T09:00:17.215Z,20.67
2022-11-29T09:02:43.966Z,21.80
2022-11-29T09:05:11.766Z,20.47
2022-11-29T09:07:39.002Z,24.93
2022-11-29T09:10:08.287Z,19.20
2022-11-29T09:12:36.448Z,22.00
2022-11-29T09:15:08.722Z,22.63
2022-11-29T09:17:35.502Z,25.60
2022-11-29T09:20:02.152Z,16.20
2022-11-29T09:22:28.859Z,18.93
2022-11-29T09:24:55.574Z,19.80
2022-11-29T09:27:22.255Z,17.87
2022-11-29T09:29:48.970Z,18.03
2022-11-29T09:32:15.741Z,18.07
2022-11-29T09:34:42.635Z,18.83
2022-11-29T09:37:09.396Z,16.37
2022-11-29T09:39:36.123Z,12.13
2022-11-29T09:42:32.737Z,12.63
2022-11-29T09:45:14.521Z,10.97
2022-11-29T09:47:57.920Z,11.30
2022-11-29T09:50:43.077Z,13.40
2022-11-29T09:53:18.929Z,11.40
2022-11-29T09:56:09.691Z,13.33
2022-11-29T09:58:52.903Z,13.30
2022-11-29T10:01:32.883Z,13.70
2022-11-29T10:04:08.930Z,12.53
2022-11-29T10:07:04.639Z,11.70
2022-11-29T10:09:40.846Z,15.33
2022-11-29T10:12:34.973Z,12.43
2022-11-29T10:15:20.074Z,11.90
2022-11-29T10:18:18.891Z,12.80
2022-11-29T10:20:49.462Z,10.63
2022-11-29T10:23:23.623Z,13.07
2022-11-29T10:25:55.783Z,11.67
2022-11-29T10:28:26.322Z,13.83
2022-11-29T10:30:58.537Z,14.03
2022-11-29T10:33:35.072Z,17.63
2022-11-29T10:36:30.417Z,14.53
2022-11-29T10:39:01.489Z,13.87
2022-11-29T10:41:28.263Z,19.43
2022-11-29T10:43:57.867Z,18.30
2022-11-29T10:46:28.729Z,20.40
2022-11-29T10:48:56.405Z,21.97
2022-11-29T10:51:23.043Z,21.70
2022-11-29T10:53:52.179Z,18.93
2022-11-29T10:56:27.422Z,19.27
2022-11-29T10:59:08.047Z,23.60
2022-11-29T11:01:41.614Z,19.50
2022-11-29T11:04:22.024Z,21.27
2022-11-29T11:06:52.156Z,19.70
2022-11-29T11:09:50.720Z,20.73
2022-11-29T11:12:22.016Z,21.73
2022-11-29T11:14:49.045Z,21.67
2022-11-29T11:17:26.374Z,19.50
2022-11-29T11:20:00.936Z,19.63
2022-11-29T11:22:29.604Z,18.93
2022-11-29T11:24:59.668Z,16.10
2022-11-29T11:27:41.081Z,18.17
2022-11-29T11:30:23.173Z,16.10
2022-11-29T11:33:17.329Z,16.67
2022-11-29T11:35:44.089Z,18.53
2022-11-29T11:38:17.787Z,19.17
2022-11-29T11:40:44.995Z,17.40
2022-11-29T11:43:20.370Z,17.83
2022-11-29T11:45:54.074Z,18.67
2022-11-29T11:48:21.547Z,14.90
2022-11-29T11:50:58.719Z,15.00
2022-11-29T11:53:35.670Z,14.97
2022-11-29T11:56:06.288Z,15.47
2022-11-29T11:58:39.252Z,14.77
2022-11-29T12:01:12.211Z,14.67
2022-11-29T12:04:16.761Z,11.27
2022-11-29T12:06:56.063Z,12.87
2022-11-29T12:09:41.825Z,15.47
2022-11-29T12:12:29.175Z,12.43
2022-11-29T12:15:04.469Z,13.53
2022-11-29T12:17:43.736Z,12.27
2022-11-29T12:20:21.289Z,13.70
2022-11-29T12:23:11.205Z,13.53
2022-11-29T12:25:52.363Z,13.40
2022-11-29T12:28:21.047Z,12.53
2022-11-29T12:31:21.431Z,15.90
2022-11-29T12:34:19.591Z,13.03
2022-11-29T12:37:26.305Z,11.53
2022-11-29T12:40:05.864Z,10.17
2022-11-29T12:42:39.968Z,11.63
2022-11-29T12:45:28.091Z,11.83
2022-11-29T12:48:21.628Z,12.77
2022-11-29T12:51:09.397Z,13.17
2022-11-29T12:53:59.033Z,11.70
2022-11-29T12:56:45.380Z,11.47
2022-11-29T12:59:36.657Z,13.60
2022-11-29T13:02:31.410Z,11.10
2022-11-29T13:05:35.253Z,11.27
2022-11-29T13:08:17.047Z,9.43
2022-11-29T13:11:14.499Z,11.00
2022-11-29T13:13:43.137Z,10.30
2022-11-29T13:16:31.256Z,12.13
2022-11-29T13:19:09.176Z,10.53
2022-11-29T13:22:06.911Z,8.90
2022-11-29T13:24:43.097Z,9.87
2022-11-29T13:27:20.385Z,10.23
2022-11-29T13:29:48.322Z,11.70
2022-11-29T13:32:26.989Z,10.93
2022-11-29T13:34:58.508Z,11.67
2022-11-29T13:37:53.536Z,11.90
2022-11-29T13:41:20.136Z,11.77
2022-11-29T13:44:11.640Z,11.73
2022-11-29T13:47:04.445Z,11.80
2022-11-29T13:50:03.525Z,12.77
2022-11-29T13:52:44.122Z,10.83
2022-11-29T13:55:11.389Z,10.50
2022-11-29T13:58:14.489Z,11.90
2022-11-29T14:00:52.174Z,12.37
2022-11-29T14:03:21.364Z,11.53
2022-11-29T14:06:09.823Z,10.93
2022-11-29T14:09:10.348Z,11.33
2022-11-29T14:11:37.946Z,10.43
2022-11-29T14:14:31.402Z,13.67
2022-11-29T14:17:00.524Z,12.53
2022-11-29T14:19:40.258Z,11.73
2022-11-29T14:22:18.236Z,11.30
2022-11-29T14:24:57.125Z,13.90
2022-11-29T14:27:23.793Z,12.83
2022-11-29T14:29:50.726Z,12.93
2022-11-29T14:32:44.427Z,11.60
2022-11-29T14:35:12.862Z,13.37
2022-11-29T14:38:19.290Z,12.67
2022-11-29T14:40:57.882Z,12.97
2022-11-29T14:43:36.974Z,11.37
2022-11-29T14:46:15.796Z,11.80
2022-11-29T14:49:00.914Z,12.23
2022-11-29T14:51:33.256Z,12.50
2022-11-29T14:54:16.004Z,16.63
2022-11-29T14:56:45.151Z,13.27
2022-11-29T14:59:40.413Z,12.90
2022-11-29T15:02:26.736Z,13.37
2022-11-29T15:04:57.363Z,10.47
2022-11-29T15:07:29.652Z,9.87
2022-11-29T15:10:01.277Z,8.93
2022-11-29T15:12:34.412Z,10.47
2022-11-29T15:15:10.649Z,10.17
2022-11-29T15:17:46.744Z,11.80
2022-11-29T15:20:28.344Z,16.43
2022-11-29T15:23:00.745Z,15.87
2022-11-29T15:25:31.755Z,15.20
2022-11-29T15:28:03.613Z,12.20
2022-11-29T15:30:33.947Z,12.13
2022-11-29T15:33:03.787Z,10.67
2022-11-29T15:35:31.935Z,11.23
2022-11-29T15:37:58.677Z,11.53
2022-11-29T15:40:34.794Z,10.60
2022-11-29T15:43:06.332Z,11.20
2022-11-29T15:45:38.392Z,9.60
2022-11-29T15:48:12.599Z,10.23
2022-11-29T15:50:43.987Z,9.47
2022-11-29T15:53:20.190Z,8.50
2022-11-29T15:55:50.665Z,9.37
2022-11-29T15:58:18.545Z,8.60
2022-11-29T16:00:49.694Z,9.20
2022-11-29T16:03:21.924Z,9.40
2022-11-29T16:05:55.926Z,8.83
2022-11-29T16:08:36.812Z,7.40
2022-11-29T16:11:05.881Z,7.80
2022-11-29T16:13:34.287Z,9.07
2022-11-29T16:16:22.656Z,8.30
2022-11-29T16:18:50.834Z,8.90
2022-11-29T16:21:29.722Z,8.47
2022-11-29T16:23:57.891Z,8.77
2022-11-29T16:26:32.010Z,9.53
2022-11-29T16:28:58.781Z,9.30
2022-11-29T16:31:36.246Z,8.07
2022-11-29T16:34:08.565Z,9.20
2022-11-29T16:36:35.643Z,9.17
2022-11-29T16:39:28.810Z,8.97
2022-11-29T16:42:20.616Z,9.30
2022-11-29T16:45:05.430Z,9.60
2022-11-29T16:48:00.150Z,10.07
2022-11-29T16:50:28.705Z,8.80
2022-11-29T16:52:57.048Z,11.07
2022-11-29T16:55:24.307Z,11.87
2022-11-29T16:57:52.143Z,12.70
2022-11-29T17:00:24.254Z,10.13
2022-11-29T17:02:50.883Z,10.93
2022-11-29T17:05:17.680Z,13.97
2022-11-29T17:07:44.831Z,10.10
2022-11-29T17:10:16.524Z,12.00
2022-11-29T17:12:48.021Z,11.67
2022-11-29T17:15:15.401Z,12.83
2022-11-29T17:17:46.311Z,11.57
2022-11-29T17:20:13.835Z,10.43
2022-11-29T17:22:41.424Z,10.37
2022-11-29T17:25:09.470Z,12.10
2022-11-29T17:27:36.280Z,12.67
2022-11-29T17:30:03.755Z,10.73
2022-11-29T17:32:30.402Z,12.77
2022-11-29T17:34:57.210Z,13.43
2022-11-29T17:37:23.882Z,12.67
2022-11-29T17:39:50.624Z,10.83
2022-11-29T17:42:17.382Z,15.67
2022-11-29T17:44:44.083Z,12.43
2022-11-29T17:47:10.778Z,14.37
2022-11-29T17:49:37.456Z,15.63
2022-11-29T17:52:04.241Z,12.37
2022-11-29T17:54:33.097Z,14.70
2022-11-29T17:57:00.763Z,12.60
2022-11-29T17:59:27.682Z,15.10
2022-11-29T18:01:54.471Z,14.73
2022-11-29T18:04:21.849Z,17.33
2022-11-29T18:06:51.511Z,17.00
2022-11-29T18:09:19.642Z,15.17
2022-11-29T18:11:49.410Z,13.43
2022-11-29T18:14:19.586Z,13.63
2022-11-29T18:16:46.536Z,13.67
2022-11-29T18:19:16.210Z,16.57
2022-11-29T18:21:43.245Z,14.33
2022-11-29T18:24:10.405Z,15.30
2022-11-29T18:26:38.241Z,14.03
2022-11-29T18:29:05.853Z,14.30
2022-11-29T18:31:35.336Z,12.23
2022-11-29T18:34:07.103Z,14.70
2022-11-29T18:36:37.357Z,12.87
2022-11-29T18:39:18.677Z,14.90
2022-11-29T18:41:49.887Z,12.80
2022-11-29T18:44:19.603Z,13.40
2022-11-29T18:46:47.143Z,13.00
2022-11-29T18:49:16.317Z,12.90
2022-11-29T18:51:44.940Z,12.23
2022-11-29T18:54:12.804Z,14.60
2022-11-29T18:56:39.737Z,14.53
2022-11-29T18:59:11.767Z,15.93
2022-11-29T19:01:43.286Z,16.10
2022-11-29T19:04:13.075Z,15.40
2022-11-29T19:06:40.691Z,15.63
2022-11-29T19:09:17.029Z,17.63
2022-11-29T19:11:43.935Z,16.83
2022-11-29T19:14:12.663Z,17.00
2022-11-29T19:16:42.321Z,17.17
2022-11-29T19:19:09.408Z,19.60
2022-11-29T19:21:36.254Z,18.77
2022-11-29T19:24:07.639Z,19.47
2022-11-29T19:26:34.923Z,21.43
2022-11-29T19:29:01.775Z,21.40
2022-11-29T19:31:32.271Z,21.03
2022-11-29T19:33:59.115Z,18.90
2022-11-29T19:36:31.001Z,24.27
2022-11-29T19:39:00.768Z,22.03
2022-11-29T19:41:34.986Z,19.57
2022-11-29T19:44:04.798Z,23.57
2022-11-29T19:46:34.713Z,22.13
2022-11-29T19:49:03.109Z,30.63
2022-11-29T19:51:30.773Z,24.30
2022-11-29T19:54:00.102Z,22.10
2022-11-29T19:56:28.219Z,24.87
2022-11-29T19:58:55.361Z,23.77
2022-11-29T20:01:25.068Z,25.03
2022-11-29T20:03:52.640Z,24.97
2022-11-29T20:06:19.948Z,24.90
2022-11-29T20:08:47.670Z,24.47
2022-11-29T20:11:17.267Z,27.90
2022-11-29T20:13:47.070Z,29.07
2022-11-29T20:16:18.324Z,27.33
2022-11-29T20:18:50.980Z,24.43
2022-11-29T20:21:21.902Z,27.83
2022-11-29T20:23:48.805Z,27.17
2022-11-29T20:26:20.784Z,26.67
2022-11-29T20:28:48.034Z,27.93
2022-11-29T20:31:19.336Z,24.70
2022-11-29T20:33:47.251Z,25.77
2022-11-29T20:36:32.465Z,29.83
2022-11-29T20:39:17.733Z,30.20
2022-11-29T20:42:23.020Z,29.10
2022-11-29T20:44:59.776Z,29.17
2022-11-29T20:47:28.575Z,29.57
2022-11-29T20:49:56.090Z,25.40
2022-11-29T20:52:45.197Z,30.53
2022-11-29T20:55:12.054Z,25.83
2022-11-29T20:57:38.712Z,25.00
2022-11-29T21:00:11.504Z,25.47
2022-11-29T21:02:38.866Z,27.67
2022-11-29T21:05:06.233Z,24.23
2022-11-29T21:07:32.952Z,28.40
2022-11-29T21:10:01.584Z,29.47
2022-11-29T21:12:30.173Z,27.63
2022-11-29T21:14:57.752Z,29.93
2022-11-29T21:17:28.761Z,31.60
2022-11-29T21:20:00.034Z,25.40
2022-11-29T21:22:48.255Z,30.87
2022-11-29T21:25:36.152Z,30.03
2022-11-29T21:28:07.832Z,27.00
2022-11-29T21:30:34.763Z,26.07
2022-11-29T21:33:01.669Z,27.93
2022-11-29T21:35:28.303Z,27.13
2022-11-29T21:37:58.986Z,27.60
2022-11-29T21:40:25.688Z,29.43
2022-11-29T21:42:52.464Z,30.67
2022-11-29T21:45:19.410Z,27.37
2022-11-29T21:47:46.065Z,28.80
2022-11-29T21:50:13.487Z,27.83
2022-11-29T21:52:40.533Z,32.77
2022-11-29T21:55:07.550Z,31.70
2022-11-29T21:57:34.229Z,31.93
2022-11-29T22:00:00.964Z,30.43
2022-11-29T22:02:27.781Z,29.47
2022-11-29T22:04:54.585Z,30.50
2022-11-29T22:07:21.385Z,34.07
2022-11-29T22:09:49.261Z,33.03
2022-11-29T22:12:33.020Z,31.83
2022-11-29T22:15:00.650Z,31.37
2022-11-29T22:17:27.265Z,30.57
2022-11-29T22:19:54.009Z,31.50
2022-11-29T22:22:20.728Z,30.37
2022-11-29T22:24:47.774Z,29.90
2022-11-29T22:27:14.708Z,34.23
2022-11-29T22:29:41.459Z,31.50
2022-11-29T22:32:08.079Z,32.60
2022-11-29T22:34:34.799Z,33.73
2022-11-29T22:37:01.597Z,33.10
2022-11-29T22:39:28.227Z,33.03
2022-11-29T22:41:55.426Z,29.87
2022-11-29T22:44:25.446Z,31.53
2022-11-29T22:46:52.474Z,36.83
2022-11-29T22:49:19.221Z,35.50
2022-11-29T22:51:45.974Z,33.17
2022-11-29T22:54:16.265Z,31.30
2022-11-29T22:56:48.631Z,34.37
2022-11-29T22:59:15.361Z,28.87
2022-11-29T23:01:42.939Z,31.43
2022-11-29T23:04:11.414Z,32.07
2022-11-29T23:06:41.373Z,34.43
2022-11-29T23:09:21.232Z,33.00
2022-11-29T23:11:52.976Z,31.90
2022-11-29T23:14:20.109Z,40.03
2022-11-29T23:16:46.841Z,35.87
2022-11-29T23:19:13.504Z,34.80
2022-11-29T23:21:41.091Z,33.97
2022-11-29T23:24:07.921Z,37.37
2022-11-29T23:26:40.451Z,36.67
2022-11-29T23:29:18.728Z,34.23
2022-11-29T23:31:46.780Z,35.47
2022-11-29T23:34:14.211Z,35.90
2022-11-29T23:36:40.943Z,33.83
2022-11-29T23:39:07.884Z,31.23
2022-11-29T23:41:36.307Z,33.93
2022-11-29T23:44:04.906Z,33.53
2022-11-29T23:46:31.717Z,34.17
2022-11-29T23:48:58.447Z,35.20
2022-11-29T23:51:25.082Z,32.80
2022-11-29T23:53:53.354Z,35.03
2022-11-29T23:56:21.067Z,38.90
2022-11-29T23:58:47.920Z,36.47
